createdAt,value
2022-09-26T00:01:49.688Z,11.70
2022-09-26T00:06:55.576Z,11.70
2022-09-26T00:11:58.719Z,11.70
2022-09-26T00:17:01.669Z,11.60
2022-09-26T00:22:06.007Z,11.60
2022-09-26T00:27:08.893Z,11.50
2022-09-26T00:32:11.806Z,11.50
2022-09-26T00:37:16.539Z,11.50
2022-09-26T00:42:19.421Z,11.50
2022-09-26T00:47:40.725Z,11.40
2022-09-26T00:52:50.399Z,11.40
2022-09-26T00:57:58.600Z,11.40
2022-09-26T01:03:02.180Z,11.40
2022-09-26T01:08:07.103Z,11.40
2022-09-26T01:13:10.011Z,11.40
2022-09-26T01:18:13.166Z,11.30
2022-09-26T01:24:08.637Z,11.30
2022-09-26T01:29:54.187Z,11.30
2022-09-26T01:35:08.100Z,11.20
2022-09-26T01:40:22.067Z,11.20
2022-09-26T01:45:33.518Z,11.20
2022-09-26T01:50:42.327Z,11.10
2022-09-26T01:55:49.409Z,11.10
2022-09-26T02:00:58.314Z,11.10
2022-09-26T02:06:05.418Z,11.00
2022-09-26T02:11:12.773Z,11.00
2022-09-26T02:16:23.635Z,10.90
2022-09-26T02:21:27.923Z,10.90
2022-09-26T02:26:31.411Z,10.90
2022-09-26T02:31:43.126Z,10.80
2022-09-26T02:36:46.429Z,10.70
2022-09-26T02:41:52.315Z,10.60
2022-09-26T02:47:19.187Z,10.60
2022-09-26T02:52:35.550Z,10.60
2022-09-26T02:57:46.675Z,10.60
2022-09-26T03:03:00.284Z,10.60
2022-09-26T03:08:07.652Z,10.60
2022-09-26T03:13:14.317Z,10.60
2022-09-26T03:18:23.628Z,10.60
2022-09-26T03:23:27.905Z,10.60
2022-09-26T03:28:37.815Z,10.60
2022-09-26T03:33:42.540Z,10.60
2022-09-26T03:38:45.749Z,10.60
2022-09-26T03:44:08.285Z,10.60
2022-09-26T03:49:50.837Z,10.60
2022-09-26T03:54:54.470Z,10.60
2022-09-26T03:59:58.202Z,10.70
2022-09-26T04:05:09.947Z,10.70
2022-09-26T04:10:13.166Z,10.70
2022-09-26T04:15:16.550Z,10.80
2022-09-26T04:20:21.584Z,10.80
2022-09-26T04:25:25.087Z,10.90
2022-09-26T04:30:29.906Z,10.90
2022-09-26T04:35:37.984Z,11.00
2022-09-26T04:40:43.124Z,11.00
2022-09-26T04:45:48.367Z,11.00
2022-09-26T04:50:52.756Z,11.10
2022-09-26T04:55:55.689Z,11.10
2022-09-26T05:01:04.356Z,11.10
2022-09-26T05:06:21.413Z,11.20
2022-09-26T05:11:25.018Z,11.30
2022-09-26T05:16:28.182Z,11.30
2022-09-26T05:21:34.317Z,11.30
2022-09-26T05:26:43.547Z,11.40
2022-09-26T05:31:46.962Z,11.40
2022-09-26T05:36:51.810Z,11.30
2022-09-26T05:41:56.009Z,11.30
2022-09-26T05:46:59.498Z,11.40
2022-09-26T05:52:05.161Z,11.40
2022-09-26T05:57:08.427Z,11.40
2022-09-26T06:02:21.033Z,11.40
2022-09-26T06:07:51.845Z,11.40
2022-09-26T06:13:15.319Z,11.40
2022-09-26T06:18:28.085Z,11.50
2022-09-26T06:23:34.181Z,11.50
2022-09-26T06:28:38.880Z,11.50
2022-09-26T06:33:42.361Z,11.50
2022-09-26T06:39:15.895Z,11.50
2022-09-26T06:44:20.961Z,11.50
2022-09-26T06:49:27.200Z,11.60
2022-09-26T06:54:38.921Z,11.70
2022-09-26T06:59:41.835Z,11.80
2022-09-26T07:04:54.207Z,11.90
2022-09-26T07:10:10.680Z,12.10
2022-09-26T07:15:18.179Z,12.20
2022-09-26T07:20:21.839Z,12.40
2022-09-26T07:25:33.150Z,12.60
2022-09-26T07:30:37.728Z,12.80
2022-09-26T07:35:50.346Z,13.00
2022-09-26T07:40:56.011Z,13.20
2022-09-26T07:46:16.611Z,13.50
2022-09-26T07:51:24.234Z,13.60
2022-09-26T07:56:29.134Z,13.90
2022-09-26T08:01:37.566Z,14.10
2022-09-26T08:07:00.459Z,14.20
2022-09-26T08:12:05.630Z,14.30
2022-09-26T08:17:24.766Z,14.40
2022-09-26T08:22:28.221Z,14.60
2022-09-26T08:27:35.219Z,14.80
2022-09-26T08:32:38.961Z,14.90
2022-09-26T08:37:42.008Z,15.00
2022-09-26T08:43:21.451Z,15.10
2022-09-26T08:49:22.847Z,15.30
2022-09-26T08:54:35.139Z,15.40
2022-09-26T08:59:43.433Z,15.50
2022-09-26T09:04:54.125Z,15.60
2022-09-26T09:10:03.879Z,15.70
2022-09-26T09:15:57.566Z,15.70
2022-09-26T09:21:18.067Z,15.80
2022-09-26T09:32:26.855Z,15.80
2022-09-26T09:37:53.237Z,15.80
2022-09-26T09:43:06.830Z,15.80
2022-09-26T09:48:13.670Z,15.80
2022-09-26T09:53:31.015Z,15.90
2022-09-26T09:58:57.553Z,15.90
2022-09-26T10:04:15.320Z,16.10
2022-09-26T10:09:35.230Z,16.20
2022-09-26T10:15:06.690Z,16.30
2022-09-26T10:20:40.846Z,16.30
2022-09-26T10:25:48.612Z,16.30
2022-09-26T10:30:54.616Z,16.30
2022-09-26T10:36:08.910Z,16.20
2022-09-26T10:41:23.979Z,16.20
2022-09-26T10:46:29.992Z,16.10
2022-09-26T10:52:01.386Z,16.10
2022-09-26T10:57:09.431Z,16.00
2022-09-26T11:02:19.985Z,15.90
2022-09-26T11:07:27.819Z,15.90
2022-09-26T11:12:58.846Z,16.00
2022-09-26T11:18:04.452Z,16.10
2022-09-26T11:23:20.139Z,16.20
2022-09-26T11:28:27.847Z,16.20
2022-09-26T11:33:49.124Z,16.30
2022-09-26T11:39:38.152Z,16.30
2022-09-26T11:44:54.315Z,16.20
2022-09-26T11:50:14.650Z,16.20
2022-09-26T11:55:48.710Z,16.20
2022-09-26T12:00:59.144Z,16.20
2022-09-26T12:06:09.832Z,16.30
2022-09-26T12:11:25.564Z,16.30
2022-09-26T12:16:36.937Z,16.30
2022-09-26T12:22:10.577Z,16.20
2022-09-26T12:27:25.610Z,16.10
2022-09-26T12:32:41.291Z,16.00
2022-09-26T12:38:01.180Z,15.90
2022-09-26T12:43:26.035Z,15.90
2022-09-26T12:48:42.395Z,15.90
2022-09-26T12:54:09.759Z,15.90
2022-09-26T12:59:25.925Z,15.90
2022-09-26T13:04:50.756Z,15.90
2022-09-26T13:10:06.388Z,15.80
2022-09-26T13:15:23.775Z,15.80
2022-09-26T13:20:33.027Z,15.80
2022-09-26T13:25:39.999Z,15.70
2022-09-26T13:30:50.031Z,15.70
2022-09-26T13:35:56.172Z,15.70
2022-09-26T13:41:04.849Z,15.70
2022-09-26T13:46:23.232Z,15.60
2022-09-26T13:51:39.362Z,15.70
2022-09-26T13:56:47.803Z,15.70
2022-09-26T14:02:22.137Z,15.60
2022-09-26T14:08:04.172Z,15.60
2022-09-26T14:13:20.115Z,15.50
2022-09-26T14:18:47.146Z,15.50
2022-09-26T14:23:51.976Z,15.60
2022-09-26T14:28:56.955Z,15.60
2022-09-26T14:34:17.437Z,15.70
2022-09-26T14:39:33.270Z,15.80
2022-09-26T14:44:37.458Z,15.90
2022-09-26T14:49:42.095Z,16.00
2022-09-26T14:54:46.134Z,16.10
2022-09-26T14:59:49.354Z,16.10
2022-09-26T15:05:04.237Z,16.10
2022-09-26T15:10:20.508Z,16.10
2022-09-26T15:15:35.282Z,16.10
2022-09-26T15:20:48.816Z,16.10
2022-09-26T15:25:53.251Z,16.10
2022-09-26T15:31:24.868Z,16.10
2022-09-26T15:36:34.729Z,16.10
2022-09-26T15:42:03.925Z,16.10
2022-09-26T15:47:27.763Z,16.10
2022-09-26T15:52:35.322Z,16.10
2022-09-26T15:57:38.370Z,16.10
2022-09-26T16:02:41.848Z,16.10
2022-09-26T16:07:51.988Z,16.10
2022-09-26T16:12:55.344Z,16.10
2022-09-26T16:17:59.564Z,16.00
2022-09-26T16:23:05.861Z,16.00
2022-09-26T16:28:39.537Z,16.00
2022-09-26T16:33:42.540Z,16.00
2022-09-26T16:38:51.806Z,16.00
2022-09-26T16:43:57.998Z,15.90
2022-09-26T16:49:02.957Z,15.80
2022-09-26T16:54:20.913Z,15.80
2022-09-26T16:59:26.284Z,15.70
2022-09-26T17:04:34.525Z,15.70
2022-09-26T17:09:41.257Z,15.60
2022-09-26T17:14:46.796Z,15.50
2022-09-26T17:19:59.146Z,15.40
2022-09-26T17:25:04.794Z,15.30
2022-09-26T17:30:16.300Z,15.20
2022-09-26T17:35:25.791Z,15.10
2022-09-26T17:40:31.962Z,15.00
2022-09-26T17:45:36.909Z,15.00
2022-09-26T17:50:40.095Z,14.90
2022-09-26T17:55:44.469Z,15.00
2022-09-26T18:00:49.689Z,14.90
2022-09-26T18:05:53.655Z,14.90
2022-09-26T18:11:00.485Z,14.90
2022-09-26T18:16:03.728Z,14.80
2022-09-26T18:21:10.649Z,14.80
2022-09-26T18:26:29.955Z,14.70
2022-09-26T18:31:35.376Z,14.70
2022-09-26T18:36:38.304Z,14.60
2022-09-26T18:41:44.991Z,14.50
2022-09-26T18:46:49.189Z,14.50
2022-09-26T18:51:53.213Z,14.40
2022-09-26T18:57:17.417Z,14.40
2022-09-26T19:02:23.544Z,14.30
2022-09-26T19:07:26.736Z,14.20
2022-09-26T19:12:31.280Z,14.10
2022-09-26T19:17:34.511Z,14.00
2022-09-26T19:22:39.541Z,14.00
2022-09-26T19:27:52.043Z,13.90
2022-09-26T19:32:57.496Z,13.90
2022-09-26T19:38:01.610Z,13.90
2022-09-26T19:43:05.861Z,13.80
2022-09-26T19:48:11.328Z,13.80
2022-09-26T19:53:16.561Z,13.80
2022-09-26T19:58:22.751Z,13.70
2022-09-26T20:03:30.526Z,13.70
2022-09-26T20:08:35.314Z,13.70
2022-09-26T20:13:59.016Z,13.60
2022-09-26T20:19:04.116Z,13.60
2022-09-26T20:24:10.375Z,13.60
2022-09-26T20:29:16.461Z,13.60
2022-09-26T20:34:19.363Z,13.60
2022-09-26T20:39:24.727Z,13.60
2022-09-26T20:44:33.523Z,13.60
2022-09-26T20:49:51.350Z,13.60
2022-09-26T20:54:55.184Z,13.50
2022-09-26T20:59:59.432Z,13.50
2022-09-26T21:05:03.264Z,13.50
2022-09-26T21:10:22.500Z,13.50
2022-09-26T21:15:28.879Z,13.50
2022-09-26T21:20:34.892Z,13.50
2022-09-26T21:25:56.245Z,13.50
2022-09-26T21:31:04.057Z,13.50
2022-09-26T21:36:07.384Z,13.50
2022-09-26T21:41:11.668Z,13.50
2022-09-26T21:46:17.372Z,13.50
2022-09-26T21:51:21.403Z,13.50
2022-09-26T21:56:28.738Z,13.50
2022-09-26T22:01:33.101Z,13.60
2022-09-26T22:06:36.066Z,13.60
2022-09-26T22:11:40.188Z,13.50
2022-09-26T22:16:44.514Z,13.60
2022-09-26T22:21:47.496Z,13.60
2022-09-26T22:26:50.669Z,13.60
2022-09-26T22:31:54.985Z,13.60
2022-09-26T22:36:57.875Z,13.60
2022-09-26T22:42:00.769Z,13.60
2022-09-26T22:47:05.092Z,13.60
2022-09-26T22:52:07.965Z,13.60
2022-09-26T22:57:11.369Z,13.60
2022-09-26T23:02:15.699Z,13.70
2022-09-26T23:07:20.258Z,13.60
2022-09-26T23:12:23.160Z,13.60
2022-09-26T23:17:27.621Z,13.70
2022-09-26T23:22:30.697Z,13.70
2022-09-26T23:27:33.702Z,13.70
2022-09-26T23:32:37.960Z,13.70
2022-09-26T23:37:40.819Z,13.70
2022-09-26T23:42:43.708Z,13.70
2022-09-26T23:47:48.322Z,13.70
2022-09-26T23:52:51.260Z,13.70
2022-09-26T23:57:56.709Z,13.80
